sensor_id;sensor_type;location;lat;lon;timestamp;P1;durP1;ratioP1;P2;durP2;ratioP2
26271;SDS011;13997;48.902;12.472;2023-03-05T06:34:27;84.32;;;33.05;;
26271;SDS011;13997;48.902;12.472;2023-03-05T06:51:49;87.00;;;32.45;;
26271;SDS011;13997;48.902;12.472;2023-03-05T06:54:15;73.40;;;31.73;;
26271;SDS011;13997;48.902;12.472;2023-03-05T06:56:42;77.30;;;32.15;;
26271;SDS011;13997;48.902;12.472;2023-03-05T06:59:10;77.57;;;31.33;;
26271;SDS011;13997;48.902;12.472;2023-03-05T07:01:36;80.78;;;32.17;;
26271;SDS011;13997;48.902;12.472;2023-03-05T07:04:02;77.43;;;32.50;;
26271;SDS011;13997;48.902;12.472;2023-03-05T07:06:30;89.65;;;32.28;;
26271;SDS011;13997;48.902;12.472;2023-03-05T07:08:58;75.65;;;31.77;;
26271;SDS011;13997;48.902;12.472;2023-03-05T07:11:27;84.38;;;33.83;;
26271;SDS011;13997;48.902;12.472;2023-03-05T07:13:53;78.30;;;31.40;;
26271;SDS011;13997;48.902;12.472;2023-03-05T07:16:20;78.40;;;32.03;;
26271;SDS011;13997;48.902;12.472;2023-03-05T07:18:53;78.47;;;31.65;;
26271;SDS011;13997;48.902;12.472;2023-03-05T07:21:22;85.35;;;33.58;;
26271;SDS011;13997;48.902;12.472;2023-03-05T07:23:51;81.82;;;32.17;;
26271;SDS011;13997;48.902;12.472;2023-03-05T07:26:17;82.65;;;33.67;;
26271;SDS011;13997;48.902;12.472;2023-03-05T07:28:43;82.25;;;33.38;;
26271;SDS011;13997;48.902;12.472;2023-03-05T07:31:12;81.43;;;32.33;;
26271;SDS011;13997;48.902;12.472;2023-03-05T07:33:46;83.95;;;33.10;;
26271;SDS011;13997;48.902;12.472;2023-03-05T07:36:13;83.03;;;31.98;;
26271;SDS011;13997;48.902;12.472;2023-03-05T07:38:39;81.90;;;31.33;;
26271;SDS011;13997;48.902;12.472;2023-03-05T07:41:06;76.25;;;31.00;;
26271;SDS011;13997;48.902;12.472;2023-03-05T07:43:46;79.28;;;31.17;;
26271;SDS011;13997;48.902;12.472;2023-03-05T07:46:14;80.65;;;31.60;;
26271;SDS011;13997;48.902;12.472;2023-03-05T07:48:41;78.70;;;31.95;;
26271;SDS011;13997;48.902;12.472;2023-03-05T07:51:08;75.68;;;30.42;;
26271;SDS011;13997;48.902;12.472;2023-03-05T08:22:58;77.53;;;29.35;;
26271;SDS011;13997;48.902;12.472;2023-03-05T08:25:26;73.22;;;29.95;;
26271;SDS011;13997;48.902;12.472;2023-03-05T08:27:52;74.10;;;30.58;;
26271;SDS011;13997;48.902;12.472;2023-03-05T08:30:19;68.47;;;30.35;;
26271;SDS011;13997;48.902;12.472;2023-03-05T08:32:47;72.53;;;30.65;;
26271;SDS011;13997;48.902;12.472;2023-03-05T08:35:13;71.97;;;30.80;;
26271;SDS011;13997;48.902;12.472;2023-03-05T08:37:39;73.72;;;30.17;;
26271;SDS011;13997;48.902;12.472;2023-03-05T08:40:05;71.13;;;28.45;;
26271;SDS011;13997;48.902;12.472;2023-03-05T08:42:31;80.13;;;30.77;;
26271;SDS011;13997;48.902;12.472;2023-03-05T08:44:56;70.03;;;29.73;;
26271;SDS011;13997;48.902;12.472;2023-03-05T08:47:22;70.88;;;29.00;;
26271;SDS011;13997;48.902;12.472;2023-03-05T08:49:49;69.70;;;29.92;;
26271;SDS011;13997;48.902;12.472;2023-03-05T08:52:19;72.07;;;29.40;;
26271;SDS011;13997;48.902;12.472;2023-03-05T08:54:46;74.70;;;28.85;;
26271;SDS011;13997;48.902;12.472;2023-03-05T08:57:12;63.05;;;27.52;;
26271;SDS011;13997;48.902;12.472;2023-03-05T08:59:37;80.15;;;28.73;;
26271;SDS011;13997;48.902;12.472;2023-03-05T09:02:03;72.47;;;28.88;;
26271;SDS011;13997;48.902;12.472;2023-03-05T09:04:28;70.15;;;28.67;;
26271;SDS011;13997;48.902;12.472;2023-03-05T09:06:55;73.53;;;29.88;;
26271;SDS011;13997;48.902;12.472;2023-03-05T09:09:21;64.05;;;28.25;;
26271;SDS011;13997;48.902;12.472;2023-03-05T09:11:47;74.18;;;29.42;;
26271;SDS011;13997;48.902;12.472;2023-03-05T09:14:13;67.97;;;28.70;;
26271;SDS011;13997;48.902;12.472;2023-03-05T09:16:38;68.82;;;29.70;;
26271;SDS011;13997;48.902;12.472;2023-03-05T09:19:05;65.85;;;26.73;;
26271;SDS011;13997;48.902;12.472;2023-03-05T09:21:34;69.00;;;28.63;;
26271;SDS011;13997;48.902;12.472;2023-03-05T09:24:00;66.65;;;26.83;;
26271;SDS011;13997;48.902;12.472;2023-03-05T09:26:26;58.28;;;25.63;;
26271;SDS011;13997;48.902;12.472;2023-03-05T09:28:51;57.88;;;25.35;;
26271;SDS011;13997;48.902;12.472;2023-03-05T09:31:17;66.10;;;26.92;;
26271;SDS011;13997;48.902;12.472;2023-03-05T09:33:43;65.15;;;25.77;;
26271;SDS011;13997;48.902;12.472;2023-03-05T09:36:19;55.58;;;23.67;;
26271;SDS011;13997;48.902;12.472;2023-03-05T09:38:49;59.28;;;24.83;;
26271;SDS011;13997;48.902;12.472;2023-03-05T09:41:16;60.45;;;25.67;;
26271;SDS011;13997;48.902;12.472;2023-03-05T09:43:57;63.15;;;26.42;;
26271;SDS011;13997;48.902;12.472;2023-03-05T09:49:17;73.07;;;28.10;;
26271;SDS011;13997;48.902;12.472;2023-03-05T09:51:45;70.70;;;29.17;;
26271;SDS011;13997;48.902;12.472;2023-03-05T09:54:21;60.00;;;26.95;;
26271;SDS011;13997;48.902;12.472;2023-03-05T09:56:53;58.97;;;25.65;;
26271;SDS011;13997;48.902;12.472;2023-03-05T10:45:23;59.15;;;23.38;;
26271;SDS011;13997;48.902;12.472;2023-03-05T10:48:28;57.30;;;24.30;;
26271;SDS011;13997;48.902;12.472;2023-03-05T10:53:41;61.45;;;25.27;;
26271;SDS011;13997;48.902;12.472;2023-03-05T10:56:20;55.67;;;22.90;;
26271;SDS011;13997;48.902;12.472;2023-03-05T10:58:47;57.63;;;24.02;;
26271;SDS011;13997;48.902;12.472;2023-03-05T11:04:01;58.03;;;23.63;;
26271;SDS011;13997;48.902;12.472;2023-03-05T11:12:35;62.53;;;24.63;;
26271;SDS011;13997;48.902;12.472;2023-03-05T11:17:43;56.40;;;22.98;;
26271;SDS011;13997;48.902;12.472;2023-03-05T11:23:23;53.03;;;21.95;;
26271;SDS011;13997;48.902;12.472;2023-03-05T11:28:34;60.30;;;22.70;;
26271;SDS011;13997;48.902;12.472;2023-03-05T11:31:05;51.47;;;21.75;;
26271;SDS011;13997;48.902;12.472;2023-03-05T11:33:40;49.45;;;20.38;;
26271;SDS011;13997;48.902;12.472;2023-03-05T11:36:42;50.92;;;21.42;;
26271;SDS011;13997;48.902;12.472;2023-03-05T11:39:18;51.13;;;21.50;;
26271;SDS011;13997;48.902;12.472;2023-03-05T11:47:15;52.55;;;22.67;;
26271;SDS011;13997;48.902;12.472;2023-03-05T11:49:44;50.92;;;21.88;;
26271;SDS011;13997;48.902;12.472;2023-03-05T11:52:13;51.22;;;21.27;;
26271;SDS011;13997;48.902;12.472;2023-03-05T11:55:01;54.42;;;23.90;;
26271;SDS011;13997;48.902;12.472;2023-03-05T12:00:37;58.47;;;24.42;;
26271;SDS011;13997;48.902;12.472;2023-03-05T12:03:10;58.30;;;24.50;;
26271;SDS011;13997;48.902;12.472;2023-03-05T12:05:40;56.20;;;24.00;;
26271;SDS011;13997;48.902;12.472;2023-03-05T12:08:13;58.08;;;24.50;;
26271;SDS011;13997;48.902;12.472;2023-03-05T12:10:45;57.75;;;24.25;;
26271;SDS011;13997;48.902;12.472;2023-03-05T12:13:31;63.80;;;23.98;;
26271;SDS011;13997;48.902;12.472;2023-03-05T12:16:15;56.33;;;23.25;;
26271;SDS011;13997;48.902;12.472;2023-03-05T12:18:57;59.23;;;23.87;;
26271;SDS011;13997;48.902;12.472;2023-03-05T12:21:44;54.63;;;22.27;;
26271;SDS011;13997;48.902;12.472;2023-03-05T12:32:50;53.63;;;21.57;;
26271;SDS011;13997;48.902;12.472;2023-03-05T12:40:24;53.45;;;21.67;;
26271;SDS011;13997;48.902;12.472;2023-03-05T12:43:03;53.40;;;21.02;;
26271;SDS011;13997;48.902;12.472;2023-03-05T13:01:06;45.33;;;19.98;;
26271;SDS011;13997;48.902;12.472;2023-03-05T13:03:38;56.95;;;21.70;;
26271;SDS011;13997;48.902;12.472;2023-03-05T13:06:21;56.65;;;21.65;;
26271;SDS011;13997;48.902;12.472;2023-03-05T13:09:23;50.30;;;21.67;;
26271;SDS011;13997;48.902;12.472;2023-03-05T13:11:44;50.08;;;20.40;;
26271;SDS011;13997;48.902;12.472;2023-03-05T13:14:26;50.53;;;20.17;;
26271;SDS011;13997;48.902;12.472;2023-03-05T13:16:52;45.00;;;19.23;;
26271;SDS011;13997;48.902;12.472;2023-03-05T13:19:19;42.25;;;18.88;;
26271;SDS011;13997;48.902;12.472;2023-03-05T13:21:45;48.50;;;19.70;;
26271;SDS011;13997;48.902;12.472;2023-03-05T13:24:20;46.53;;;21.95;;
26271;SDS011;13997;48.902;12.472;2023-03-05T13:26:46;41.33;;;19.98;;
26271;SDS011;13997;48.902;12.472;2023-03-05T13:29:12;47.88;;;20.25;;
26271;SDS011;13997;48.902;12.472;2023-03-05T13:31:40;38.38;;;16.10;;
26271;SDS011;13997;48.902;12.472;2023-03-05T13:37:15;42.25;;;15.50;;
26271;SDS011;13997;48.902;12.472;2023-03-05T13:39:48;38.55;;;15.13;;
26271;SDS011;13997;48.902;12.472;2023-03-05T13:42:18;41.97;;;17.17;;
26271;SDS011;13997;48.902;12.472;2023-03-05T13:47:25;40.45;;;17.13;;
26271;SDS011;13997;48.902;12.472;2023-03-05T13:50:05;34.92;;;15.95;;
26271;SDS011;13997;48.902;12.472;2023-03-05T13:52:46;36.10;;;14.27;;
26271;SDS011;13997;48.902;12.472;2023-03-05T13:55:12;30.35;;;13.13;;
26271;SDS011;13997;48.902;12.472;2023-03-05T13:57:44;31.73;;;13.63;;
26271;SDS011;13997;48.902;12.472;2023-03-05T14:03:22;35.53;;;14.93;;
26271;SDS011;13997;48.902;12.472;2023-03-05T14:05:51;44.03;;;17.77;;
26271;SDS011;13997;48.902;12.472;2023-03-05T14:08:19;32.38;;;13.10;;
26271;SDS011;13997;48.902;12.472;2023-03-05T14:10:51;27.95;;;10.98;;
26271;SDS011;13997;48.902;12.472;2023-03-05T14:13:22;31.15;;;12.18;;
26271;SDS011;13997;48.902;12.472;2023-03-05T14:16:03;31.05;;;12.10;;
26271;SDS011;13997;48.902;12.472;2023-03-05T14:18:30;21.05;;;9.90;;
26271;SDS011;13997;48.902;12.472;2023-03-05T14:20:58;21.45;;;9.23;;
26271;SDS011;13997;48.902;12.472;2023-03-05T14:31:28;18.75;;;8.52;;
26271;SDS011;13997;48.902;12.472;2023-03-05T14:34:03;18.38;;;8.38;;
26271;SDS011;13997;48.902;12.472;2023-03-05T14:36:30;22.13;;;9.57;;
26271;SDS011;13997;48.902;12.472;2023-03-05T14:38:57;28.65;;;11.98;;
26271;SDS011;13997;48.902;12.472;2023-03-05T14:41:40;25.50;;;9.18;;
26271;SDS011;13997;48.902;12.472;2023-03-05T14:44:12;20.63;;;8.57;;
26271;SDS011;13997;48.902;12.472;2023-03-05T14:46:40;19.45;;;7.28;;
26271;SDS011;13997;48.902;12.472;2023-03-05T14:49:07;16.35;;;7.85;;
26271;SDS011;13997;48.902;12.472;2023-03-05T14:51:34;15.25;;;6.38;;
26271;SDS011;13997;48.902;12.472;2023-03-05T14:54:03;13.77;;;6.13;;
26271;SDS011;13997;48.902;12.472;2023-03-05T14:56:29;15.35;;;6.25;;
26271;SDS011;13997;48.902;12.472;2023-03-05T14:58:56;15.23;;;7.55;;
26271;SDS011;13997;48.902;12.472;2023-03-05T15:01:21;9.77;;;5.32;;
26271;SDS011;13997;48.902;12.472;2023-03-05T15:03:48;17.55;;;6.25;;
26271;SDS011;13997;48.902;12.472;2023-03-05T15:06:26;12.18;;;5.85;;
26271;SDS011;13997;48.902;12.472;2023-03-05T15:08:59;11.75;;;5.80;;
26271;SDS011;13997;48.902;12.472;2023-03-05T15:11:25;13.43;;;6.82;;
26271;SDS011;13997;48.902;12.472;2023-03-05T15:13:50;12.68;;;5.95;;
26271;SDS011;13997;48.902;12.472;2023-03-05T15:16:16;17.13;;;6.72;;
26271;SDS011;13997;48.902;12.472;2023-03-05T15:18:43;13.60;;;6.20;;
26271;SDS011;13997;48.902;12.472;2023-03-05T15:21:09;12.68;;;5.75;;
26271;SDS011;13997;48.902;12.472;2023-03-05T15:23:34;11.38;;;5.65;;
26271;SDS011;13997;48.902;12.472;2023-03-05T15:26:03;13.40;;;6.03;;
26271;SDS011;13997;48.902;12.472;2023-03-05T15:28:32;11.85;;;5.88;;
26271;SDS011;13997;48.902;12.472;2023-03-05T15:30:59;10.95;;;5.20;;
26271;SDS011;13997;48.902;12.472;2023-03-05T15:33:25;18.50;;;6.97;;
26271;SDS011;13997;48.902;12.472;2023-03-05T15:35:52;15.95;;;5.75;;
26271;SDS011;13997;48.902;12.472;2023-03-05T15:38:18;12.50;;;6.25;;
26271;SDS011;13997;48.902;12.472;2023-03-05T15:40:43;14.85;;;6.10;;
26271;SDS011;13997;48.902;12.472;2023-03-05T15:43:10;10.60;;;5.38;;
26271;SDS011;13997;48.902;12.472;2023-03-05T15:45:35;15.93;;;5.53;;
26271;SDS011;13997;48.902;12.472;2023-03-05T15:48:01;23.20;;;9.13;;
26271;SDS011;13997;48.902;12.472;2023-03-05T15:50:27;12.82;;;5.65;;
26271;SDS011;13997;48.902;12.472;2023-03-05T15:52:53;11.40;;;5.78;;
26271;SDS011;13997;48.902;12.472;2023-03-05T15:55:18;14.38;;;6.40;;
26271;SDS011;13997;48.902;12.472;2023-03-05T15:57:45;12.02;;;5.28;;
26271;SDS011;13997;48.902;12.472;2023-03-05T16:00:13;10.32;;;4.90;;
26271;SDS011;13997;48.902;12.472;2023-03-05T16:02:40;12.82;;;6.40;;
26271;SDS011;13997;48.902;12.472;2023-03-05T16:05:06;15.85;;;5.75;;
26271;SDS011;13997;48.902;12.472;2023-03-05T16:07:32;15.23;;;6.60;;
26271;SDS011;13997;48.902;12.472;2023-03-05T16:10:02;14.68;;;5.95;;
26271;SDS011;13997;48.902;12.472;2023-03-05T16:12:30;15.65;;;5.13;;
26271;SDS011;13997;48.902;12.472;2023-03-05T16:15:04;9.05;;;4.28;;
26271;SDS011;13997;48.902;12.472;2023-03-05T16:17:41;14.40;;;5.38;;
26271;SDS011;13997;48.902;12.472;2023-03-05T16:20:09;23.27;;;9.70;;
26271;SDS011;13997;48.902;12.472;2023-03-05T16:22:35;17.92;;;6.88;;
26271;SDS011;13997;48.902;12.472;2023-03-05T16:25:01;16.85;;;6.57;;
26271;SDS011;13997;48.902;12.472;2023-03-05T16:27:27;28.88;;;10.35;;
26271;SDS011;13997;48.902;12.472;2023-03-05T16:29:53;26.58;;;9.82;;
26271;SDS011;13997;48.902;12.472;2023-03-05T16:32:18;29.25;;;12.02;;
26271;SDS011;13997;48.902;12.472;2023-03-05T16:34:46;24.65;;;9.90;;
26271;SDS011;13997;48.902;12.472;2023-03-05T16:37:16;21.05;;;10.00;;
26271;SDS011;13997;48.902;12.472;2023-03-05T16:39:44;22.95;;;10.30;;
26271;SDS011;13997;48.902;12.472;2023-03-05T16:42:09;14.38;;;6.72;;
26271;SDS011;13997;48.902;12.472;2023-03-05T16:44:36;12.55;;;6.32;;
26271;SDS011;13997;48.902;12.472;2023-03-05T16:47:02;13.90;;;6.43;;
26271;SDS011;13997;48.902;12.472;2023-03-05T16:49:28;13.23;;;6.70;;
26271;SDS011;13997;48.902;12.472;2023-03-05T16:51:54;15.50;;;6.47;;
26271;SDS011;13997;48.902;12.472;2023-03-05T16:54:19;11.95;;;6.00;;
26271;SDS011;13997;48.902;12.472;2023-03-05T16:56:46;12.65;;;6.15;;
26271;SDS011;13997;48.902;12.472;2023-03-05T16:59:12;15.70;;;6.25;;
26271;SDS011;13997;48.902;12.472;2023-03-05T17:01:37;15.85;;;6.38;;
26271;SDS011;13997;48.902;12.472;2023-03-05T17:04:03;12.50;;;6.60;;
26271;SDS011;13997;48.902;12.472;2023-03-05T17:06:30;13.90;;;6.70;;
26271;SDS011;13997;48.902;12.472;2023-03-05T17:08:57;14.80;;;6.28;;
26271;SDS011;13997;48.902;12.472;2023-03-05T17:11:23;12.68;;;6.75;;
26271;SDS011;13997;48.902;12.472;2023-03-05T17:13:49;15.30;;;6.43;;
26271;SDS011;13997;48.902;12.472;2023-03-05T17:16:16;14.10;;;6.57;;
26271;SDS011;13997;48.902;12.472;2023-03-05T17:18:42;15.15;;;6.15;;
26271;SDS011;13997;48.902;12.472;2023-03-05T17:21:09;14.57;;;6.75;;
26271;SDS011;13997;48.902;12.472;2023-03-05T17:23:35;11.43;;;6.15;;
26271;SDS011;13997;48.902;12.472;2023-03-05T17:26:03;18.02;;;7.05;;
26271;SDS011;13997;48.902;12.472;2023-03-05T17:28:30;14.00;;;7.00;;
26271;SDS011;13997;48.902;12.472;2023-03-05T17:30:56;16.35;;;6.03;;
26271;SDS011;13997;48.902;12.472;2023-03-05T17:33:25;11.15;;;5.80;;
26271;SDS011;13997;48.902;12.472;2023-03-05T17:35:51;8.82;;;5.03;;
26271;SDS011;13997;48.902;12.472;2023-03-05T17:38:17;13.07;;;5.88;;
26271;SDS011;13997;48.902;12.472;2023-03-05T17:40:42;13.18;;;6.10;;
26271;SDS011;13997;48.902;12.472;2023-03-05T17:43:08;13.43;;;6.18;;
26271;SDS011;13997;48.902;12.472;2023-03-05T17:45:34;12.20;;;5.95;;
26271;SDS011;13997;48.902;12.472;2023-03-05T17:48:00;16.00;;;7.57;;
26271;SDS011;13997;48.902;12.472;2023-03-05T17:50:25;14.80;;;6.53;;
26271;SDS011;13997;48.902;12.472;2023-03-05T17:52:51;15.75;;;6.90;;
26271;SDS011;13997;48.902;12.472;2023-03-05T17:55:16;17.33;;;7.47;;
26271;SDS011;13997;48.902;12.472;2023-03-05T17:57:42;14.40;;;7.30;;
26271;SDS011;13997;48.902;12.472;2023-03-05T18:00:15;14.95;;;7.25;;
26271;SDS011;13997;48.902;12.472;2023-03-05T18:02:45;19.98;;;7.53;;
26271;SDS011;13997;48.902;12.472;2023-03-05T18:05:11;15.43;;;7.45;;
26271;SDS011;13997;48.902;12.472;2023-03-05T18:07:37;15.38;;;7.63;;
26271;SDS011;13997;48.902;12.472;2023-03-05T18:10:03;14.30;;;7.50;;
26271;SDS011;13997;48.902;12.472;2023-03-05T18:12:30;14.98;;;6.82;;
26271;SDS011;13997;48.902;12.472;2023-03-05T18:14:56;18.38;;;7.68;;
26271;SDS011;13997;48.902;12.472;2023-03-05T18:17:22;25.95;;;9.45;;
26271;SDS011;13997;48.902;12.472;2023-03-05T18:19:48;14.43;;;8.40;;
26271;SDS011;13997;48.902;12.472;2023-03-05T18:22:14;29.15;;;9.98;;
26271;SDS011;13997;48.902;12.472;2023-03-05T18:24:40;24.85;;;10.80;;
26271;SDS011;13997;48.902;12.472;2023-03-05T18:27:05;30.58;;;11.80;;
26271;SDS011;13997;48.902;12.472;2023-03-05T18:29:31;20.83;;;8.98;;
26271;SDS011;13997;48.902;12.472;2023-03-05T18:31:58;14.88;;;7.40;;
26271;SDS011;13997;48.902;12.472;2023-03-05T18:34:23;17.75;;;7.35;;
26271;SDS011;13997;48.902;12.472;2023-03-05T18:36:50;13.05;;;6.75;;
26271;SDS011;13997;48.902;12.472;2023-03-05T18:39:16;13.18;;;6.53;;
26271;SDS011;13997;48.902;12.472;2023-03-05T18:41:42;15.98;;;6.40;;
26271;SDS011;13997;48.902;12.472;2023-03-05T18:44:09;12.27;;;5.90;;
26271;SDS011;13997;48.902;12.472;2023-03-05T18:46:35;18.75;;;6.03;;
26271;SDS011;13997;48.902;12.472;2023-03-05T18:49:00;14.80;;;7.28;;
26271;SDS011;13997;48.902;12.472;2023-03-05T18:51:26;13.65;;;7.10;;
26271;SDS011;13997;48.902;12.472;2023-03-05T18:53:53;11.95;;;6.28;;
26271;SDS011;13997;48.902;12.472;2023-03-05T18:56:21;15.50;;;7.38;;
26271;SDS011;13997;48.902;12.472;2023-03-05T18:58:48;19.42;;;9.00;;
26271;SDS011;13997;48.902;12.472;2023-03-05T19:01:14;17.33;;;7.78;;
26271;SDS011;13997;48.902;12.472;2023-03-05T19:03:41;19.90;;;8.65;;
26271;SDS011;13997;48.902;12.472;2023-03-05T19:06:07;22.30;;;7.30;;
26271;SDS011;13997;48.902;12.472;2023-03-05T19:08:33;18.50;;;8.07;;
26271;SDS011;13997;48.902;12.472;2023-03-05T19:10:59;16.92;;;8.10;;
26271;SDS011;13997;48.902;12.472;2023-03-05T19:13:30;26.05;;;10.82;;
26271;SDS011;13997;48.902;12.472;2023-03-05T19:16:10;34.90;;;13.25;;
26271;SDS011;13997;48.902;12.472;2023-03-05T19:18:38;35.13;;;15.40;;
26271;SDS011;13997;48.902;12.472;2023-03-05T19:21:13;30.00;;;12.25;;
26271;SDS011;13997;48.902;12.472;2023-03-05T19:23:39;30.55;;;11.63;;
26271;SDS011;13997;48.902;12.472;2023-03-05T19:26:04;29.08;;;11.13;;
26271;SDS011;13997;48.902;12.472;2023-03-05T19:28:30;29.23;;;11.77;;
26271;SDS011;13997;48.902;12.472;2023-03-05T19:30:55;27.10;;;12.50;;
26271;SDS011;13997;48.902;12.472;2023-03-05T19:33:21;51.95;;;17.13;;
26271;SDS011;13997;48.902;12.472;2023-03-05T19:35:47;36.75;;;12.63;;
26271;SDS011;13997;48.902;12.472;2023-03-05T19:38:14;20.13;;;8.82;;
26271;SDS011;13997;48.902;12.472;2023-03-05T19:40:40;24.75;;;10.00;;
26271;SDS011;13997;48.902;12.472;2023-03-05T19:43:06;22.17;;;8.88;;
26271;SDS011;13997;48.902;12.472;2023-03-05T19:45:32;23.10;;;8.63;;
26271;SDS011;13997;48.902;12.472;2023-03-05T19:47:59;16.77;;;7.38;;
26271;SDS011;13997;48.902;12.472;2023-03-05T19:50:25;15.77;;;7.05;;
26271;SDS011;13997;48.902;12.472;2023-03-05T19:52:51;17.10;;;7.00;;
26271;SDS011;13997;48.902;12.472;2023-03-05T19:55:16;16.30;;;7.90;;
26271;SDS011;13997;48.902;12.472;2023-03-05T19:57:42;21.20;;;9.38;;
26271;SDS011;13997;48.902;12.472;2023-03-05T20:00:08;23.05;;;10.27;;
26271;SDS011;13997;48.902;12.472;2023-03-05T20:02:34;22.90;;;13.43;;
26271;SDS011;13997;48.902;12.472;2023-03-05T20:05:00;19.33;;;9.90;;
26271;SDS011;13997;48.902;12.472;2023-03-05T20:07:25;22.52;;;9.55;;
26271;SDS011;13997;48.902;12.472;2023-03-05T20:09:51;23.35;;;10.25;;
26271;SDS011;13997;48.902;12.472;2023-03-05T20:12:19;21.52;;;9.70;;
26271;SDS011;13997;48.902;12.472;2023-03-05T20:14:45;21.23;;;8.95;;
26271;SDS011;13997;48.902;12.472;2023-03-05T20:17:11;17.95;;;9.48;;
26271;SDS011;13997;48.902;12.472;2023-03-05T20:19:37;21.25;;;10.43;;
26271;SDS011;13997;48.902;12.472;2023-03-05T20:22:02;26.52;;;11.48;;
26271;SDS011;13997;48.902;12.472;2023-03-05T20:24:28;26.85;;;12.13;;
26271;SDS011;13997;48.902;12.472;2023-03-05T20:26:53;22.77;;;9.88;;
26271;SDS011;13997;48.902;12.472;2023-03-05T20:29:19;20.58;;;9.23;;
26271;SDS011;13997;48.902;12.472;2023-03-05T20:31:45;23.35;;;8.38;;
26271;SDS011;13997;48.902;12.472;2023-03-05T20:34:12;16.00;;;8.00;;
26271;SDS011;13997;48.902;12.472;2023-03-05T20:36:41;17.90;;;8.38;;
26271;SDS011;13997;48.902;12.472;2023-03-05T20:39:07;17.30;;;7.47;;
26271;SDS011;13997;48.902;12.472;2023-03-05T20:41:33;17.67;;;7.85;;
26271;SDS011;13997;48.902;12.472;2023-03-05T20:44:00;19.65;;;7.97;;
26271;SDS011;13997;48.902;12.472;2023-03-05T20:46:28;14.13;;;7.80;;
26271;SDS011;13997;48.902;12.472;2023-03-05T20:48:56;14.23;;;7.68;;
26271;SDS011;13997;48.902;12.472;2023-03-05T20:51:27;18.30;;;8.80;;
26271;SDS011;13997;48.902;12.472;2023-03-05T20:53:54;17.80;;;8.43;;
26271;SDS011;13997;48.902;12.472;2023-03-05T20:56:24;16.35;;;7.82;;
26271;SDS011;13997;48.902;12.472;2023-03-05T20:58:51;21.33;;;8.63;;
26271;SDS011;13997;48.902;12.472;2023-03-05T21:01:22;16.73;;;8.93;;
26271;SDS011;13997;48.902;12.472;2023-03-05T21:03:48;18.00;;;8.57;;
26271;SDS011;13997;48.902;12.472;2023-03-05T21:06:14;24.13;;;9.57;;
26271;SDS011;13997;48.902;12.472;2023-03-05T21:08:39;20.05;;;9.52;;
26271;SDS011;13997;48.902;12.472;2023-03-05T21:11:06;17.02;;;9.25;;
26271;SDS011;13997;48.902;12.472;2023-03-05T21:13:32;24.30;;;9.57;;
26271;SDS011;13997;48.902;12.472;2023-03-05T21:15:59;20.17;;;9.15;;
26271;SDS011;13997;48.902;12.472;2023-03-05T21:18:24;19.52;;;9.57;;
26271;SDS011;13997;48.902;12.472;2023-03-05T21:20:52;20.77;;;9.00;;
26271;SDS011;13997;48.902;12.472;2023-03-05T21:23:18;17.67;;;9.23;;
26271;SDS011;13997;48.902;12.472;2023-03-05T21:25:44;19.80;;;8.82;;
26271;SDS011;13997;48.902;12.472;2023-03-05T21:28:10;19.23;;;9.57;;
26271;SDS011;13997;48.902;12.472;2023-03-05T21:30:41;19.63;;;9.57;;
26271;SDS011;13997;48.902;12.472;2023-03-05T21:33:12;19.55;;;8.95;;
26271;SDS011;13997;48.902;12.472;2023-03-05T21:35:40;21.33;;;8.27;;
26271;SDS011;13997;48.902;12.472;2023-03-05T21:38:06;18.15;;;9.45;;
26271;SDS011;13997;48.902;12.472;2023-03-05T21:40:34;23.50;;;10.07;;
26271;SDS011;13997;48.902;12.472;2023-03-05T21:43:02;20.92;;;10.50;;
26271;SDS011;13997;48.902;12.472;2023-03-05T21:45:28;21.35;;;10.48;;
26271;SDS011;13997;48.902;12.472;2023-03-05T21:47:54;20.75;;;10.40;;
26271;SDS011;13997;48.902;12.472;2023-03-05T21:50:20;23.67;;;10.43;;
26271;SDS011;13997;48.902;12.472;2023-03-05T21:52:47;19.92;;;9.60;;
26271;SDS011;13997;48.902;12.472;2023-03-05T21:55:14;23.00;;;10.88;;
26271;SDS011;13997;48.902;12.472;2023-03-05T21:57:41;24.98;;;10.35;;
26271;SDS011;13997;48.902;12.472;2023-03-05T22:00:08;20.67;;;10.23;;
26271;SDS011;13997;48.902;12.472;2023-03-05T22:02:36;24.10;;;9.65;;
26271;SDS011;13997;48.902;12.472;2023-03-05T22:05:03;18.10;;;9.73;;
26271;SDS011;13997;48.902;12.472;2023-03-05T22:07:30;21.23;;;10.23;;
26271;SDS011;13997;48.902;12.472;2023-03-05T22:09:56;20.38;;;10.40;;
26271;SDS011;13997;48.902;12.472;2023-03-05T22:12:22;19.95;;;10.32;;
26271;SDS011;13997;48.902;12.472;2023-03-05T22:15:04;22.08;;;10.55;;
26271;SDS011;13997;48.902;12.472;2023-03-05T22:17:30;21.77;;;10.35;;
26271;SDS011;13997;48.902;12.472;2023-03-05T22:19:55;27.05;;;11.80;;
26271;SDS011;13997;48.902;12.472;2023-03-05T22:22:21;21.63;;;11.18;;
26271;SDS011;13997;48.902;12.472;2023-03-05T22:24:46;21.23;;;10.27;;
26271;SDS011;13997;48.902;12.472;2023-03-05T22:27:12;26.85;;;11.88;;
26271;SDS011;13997;48.902;12.472;2023-03-05T22:29:38;28.05;;;11.55;;
26271;SDS011;13997;48.902;12.472;2023-03-05T22:32:03;24.95;;;11.52;;
26271;SDS011;13997;48.902;12.472;2023-03-05T22:34:29;27.17;;;12.90;;
26271;SDS011;13997;48.902;12.472;2023-03-05T22:36:54;25.75;;;12.20;;
26271;SDS011;13997;48.902;12.472;2023-03-05T22:39:20;23.73;;;12.13;;
26271;SDS011;13997;48.902;12.472;2023-03-05T22:41:46;28.33;;;12.30;;
26271;SDS011;13997;48.902;12.472;2023-03-05T22:44:11;26.70;;;13.43;;
26271;SDS011;13997;48.902;12.472;2023-03-05T22:46:37;28.50;;;13.38;;
26271;SDS011;13997;48.902;12.472;2023-03-05T22:49:02;22.15;;;12.48;;
26271;SDS011;13997;48.902;12.472;2023-03-05T22:51:28;31.27;;;13.27;;
26271;SDS011;13997;48.902;12.472;2023-03-05T22:53:54;27.77;;;13.10;;
26271;SDS011;13997;48.902;12.472;2023-03-05T22:56:19;28.27;;;12.23;;
26271;SDS011;13997;48.902;12.472;2023-03-05T22:58:45;26.05;;;13.38;;
26271;SDS011;13997;48.902;12.472;2023-03-05T23:03:44;34.40;;;14.05;;
26271;SDS011;13997;48.902;12.472;2023-03-05T23:06:09;36.13;;;15.45;;
26271;SDS011;13997;48.902;12.472;2023-03-05T23:08:35;33.10;;;14.70;;
26271;SDS011;13997;48.902;12.472;2023-03-05T23:11:05;30.52;;;15.00;;
26271;SDS011;13997;48.902;12.472;2023-03-05T23:13:32;38.10;;;15.48;;
26271;SDS011;13997;48.902;12.472;2023-03-05T23:15:58;31.15;;;15.77;;
26271;SDS011;13997;48.902;12.472;2023-03-05T23:18:23;33.67;;;15.95;;
26271;SDS011;13997;48.902;12.472;2023-03-05T23:20:49;39.15;;;15.13;;
26271;SDS011;13997;48.902;12.472;2023-03-05T23:23:17;34.50;;;15.02;;
26271;SDS011;13997;48.902;12.472;2023-03-05T23:25:43;31.48;;;14.50;;
26271;SDS011;13997;48.902;12.472;2023-03-05T23:28:09;30.95;;;14.48;;
26271;SDS011;13997;48.902;12.472;2023-03-05T23:30:35;30.58;;;13.73;;
26271;SDS011;13997;48.902;12.472;2023-03-05T23:38:04;31.35;;;14.02;;
26271;SDS011;13997;48.902;12.472;2023-03-05T23:40:32;32.58;;;14.45;;
26271;SDS011;13997;48.902;12.472;2023-03-05T23:43:00;31.88;;;14.32;;
26271;SDS011;13997;48.902;12.472;2023-03-05T23:45:26;32.78;;;13.55;;
26271;SDS011;13997;48.902;12.472;2023-03-05T23:47:52;32.25;;;14.05;;